Wetterdaten: Woche 21.11.05 - 27.11.05 (KW47)
Datum Zeit Temperatur Luftfeuchte Luftdruck Niederschlag Wind Richtung Sonne Helligkeit Taupunkt Windchill
21.11.2005 00:00 -0.5 C 77 % 1032.2 hPa 0.0 l/m 0.0 km/h (0 Bft) N 0.00 h 0 lux -4.0 C -0.5 C
21.11.2005 01:00 -1.1 C 81 % 1031.3 hPa 0.0 l/m 0.4 km/h (0 Bft) S-SO 0.00 h 0 lux -4.0 C -1.1 C
21.11.2005 02:00 -1.7 C 81 % 1031.3 hPa 0.0 l/m 0.2 km/h (0 Bft) S-SO 0.00 h 0 lux -4.6 C -1.7 C
21.11.2005 03:00 -2.4 C 84 % 1031.4 hPa 0.0 l/m 0.4 km/h (0 Bft) S-SO 0.00 h 0 lux -4.7 C -2.6 C
21.11.2005 04:00 -2.8 C 86 % 1031.5 hPa 0.0 l/m 0.0 km/h (0 Bft) N 0.00 h 0 lux -4.8 C -2.8 C
21.11.2005 05:00 -3.4 C 86 % 1031.4 hPa 0.0 l/m 0.3 km/h (0 Bft) S-SO 0.00 h 0 lux -5.3 C -3.5 C
21.11.2005 06:00 -3.3 C 88 % 1030.5 hPa 0.0 l/m 0.2 km/h (0 Bft) S-SO 0.00 h 0 lux -5.1 C -3.3 C
21.11.2005 07:00 -3.6 C 88 % 1030.6 hPa 0.0 l/m 2.0 km/h (1 Bft) S-SO 0.03 h 638 lux -5.3 C -4.0 C
21.11.2005 08:00 -3.4 C 89 % 1030.5 hPa 0.0 l/m 0.3 km/h (0 Bft) O-SO 0.13 h 6.06 klux -4.9 C -3.4 C
21.11.2005 09:00 -2.3 C 86 % 1030.4 hPa 0.0 l/m 1.4 km/h (1 Bft) O-SO 0.30 h 16.0 klux -4.4 C -2.4 C
21.11.2005 10:00 -0.3 C 79 % 1030.5 hPa 0.0 l/m 0.3 km/h (0 Bft) O-SO 0.30 h 23.6 klux -3.5 C -0.3 C
21.11.2005 11:00 0.8 C 76 % 1029.9 hPa 0.0 l/m 0.0 km/h (0 Bft) N 0.00 h 9.4 klux -2.9 C 0.8 C
21.11.2005 12:00 1.0 C 81 % 1029.8 hPa 0.0 l/m 0.6 km/h (0 Bft) O-SO 0.00 h 9.5 klux -1.8 C 1.0 C
21.11.2005 13:00 1.6 C 81 % 1028.9 hPa 0.0 l/m 1.1 km/h (1 Bft) SO 0.00 h 6.51 klux -1.3 C 1.5 C
21.11.2005 14:00 2.3 C 74 % 1028.7 hPa 0.0 l/m 0.4 km/h (0 Bft) S 0.00 h 5.73 klux -1.9 C 2.3 C
21.11.2005 15:00 2.6 C 74 % 1028.6 hPa 0.0 l/m 0.1 km/h (0 Bft) N 0.00 h 3.36 klux -1.5 C 2.6 C
21.11.2005 16:00 2.4 C 78 % 1028.6 hPa 0.0 l/m 0.3 km/h (0 Bft) O-SO 0.00 h 578 lux -1.1 C 2.4 C
21.11.2005 17:00 2.1 C 82 % 1028.7 hPa 0.0 l/m 0.0 km/h (0 Bft) N 0.00 h 21 lux -0.7 C 2.1 C
21.11.2005 18:00 1.8 C 82 % 1029.2 hPa 0.0 l/m 0.7 km/h (0 Bft) O-SO 0.00 h 0 lux -0.9 C 1.8 C
21.11.2005 19:00 1.9 C 83 % 1029.8 hPa 0.0 l/m 0.1 km/h (0 Bft) O-SO 0.00 h 0 lux -0.8 C 1.9 C
21.11.2005 20:00 1.8 C 85 % 1029.8 hPa 0.0 l/m 0.0 km/h (0 Bft) N 0.00 h 0 lux -0.5 C 1.8 C
21.11.2005 21:00 1.6 C 88 % 1029.8 hPa 0.0 l/m 0.3 km/h (0 Bft) O-SO 0.00 h 0 lux -0.2 C 1.6 C
21.11.2005 22:00 1.3 C 89 % 1029.8 hPa 0.0 l/m 0.6 km/h (0 Bft) SO 0.00 h 0 lux -0.2 C 1.3 C
21.11.2005 23:00 0.9 C 89 % 1029.9 hPa 0.0 l/m 0.0 km/h (0 Bft) N 0.00 h 0 lux -0.7 C 0.9 C
22.11.2005 00:00 1.0 C 88 % 1030.5 hPa 0.0 l/m 0.0 km/h (0 Bft) N 0.00 h 0 lux -0.8 C 1.0 C
22.11.2005 01:00 0.4 C 84 % 1030.6 hPa 0.0 l/m 1.2 km/h (1 Bft) O-NO 0.00 h 0 lux -1.9 C -0.0 C
22.11.2005 02:00 0.2 C 74 % 1031.0 hPa 0.0 l/m 1.2 km/h (1 Bft) O 0.00 h 0 lux -3.8 C -0.1 C
22.11.2005 03:00 -0.6 C 74 % 1031.2 hPa 0.0 l/m 1.0 km/h (0 Bft) N-NO 0.00 h 0 lux -4.6 C -0.8 C
22.11.2005 04:00 -0.0 C 71 % 1031.1 hPa 0.0 l/m 3.2 km/h (1 Bft) N-NO 0.00 h 0 lux -4.7 C -0.8 C
22.11.2005 05:00 0.0 C 70 % 1031.1 hPa 0.0 l/m 1.4 km/h (1 Bft) NO 0.00 h 0 lux -4.7 C -0.3 C
22.11.2005 06:00 -0.4 C 71 % 1031.1 hPa 0.0 l/m 4.8 km/h (1 Bft) N-NO 0.00 h 0 lux -5.0 C -1.7 C
22.11.2005 07:00 -0.6 C 72 % 1031.2 hPa 0.0 l/m 3.3 km/h (1 Bft) N-NO 0.07 h 682 lux -5.1 C -1.4 C
22.11.2005 08:00 -0.4 C 69 % 1031.1 hPa 0.0 l/m 1.7 km/h (1 Bft) NO 0.75 h 11.4 klux -5.3 C -0.7 C
22.11.2005 09:00 0.6 C 66 % 1031.2 hPa 0.0 l/m 3.3 km/h (1 Bft) NO 1.00 h 27.8 klux -5.0 C -0.2 C
22.11.2005 10:00 1.4 C 61 % 1031.9 hPa 0.0 l/m 10.8 km/h (2 Bft) NO 0.62 h 31.3 klux -5.2 C -1.4 C
22.11.2005 11:00 2.5 C 56 % 1031.4 hPa 0.0 l/m 13.5 km/h (3 Bft) O 0.83 h 46.8 klux -5.4 C -0.7 C
22.11.2005 12:00 3.0 C 52 % 1030.6 hPa 0.0 l/m 12.4 km/h (3 Bft) NO 0.80 h 44.9 klux -5.9 C -0.1 C
22.11.2005 13:00 2.8 C 52 % 1030.9 hPa 0.0 l/m 10.6 km/h (2 Bft) NO 0.63 h 36.8 klux -6.1 C 0.3 C
22.11.2005 14:00 3.3 C 48 % 1030.6 hPa 0.0 l/m 10.7 km/h (2 Bft) N-NO 0.53 h 24.9 klux -6.6 C 0.9 C
22.11.2005 15:00 3.1 C 45 % 1030.7 hPa 0.0 l/m 10.9 km/h (2 Bft) O-NO 0.93 h 22.4 klux -7.7 C 0.4 C
22.11.2005 16:00 2.0 C 54 % 1031.3 hPa 0.0 l/m 3.4 km/h (1 Bft) NO 0.22 h 2.16 klux -6.5 C 1.3 C
22.11.2005 17:00 0.5 C 64 % 1031.7 hPa 0.0 l/m 4.1 km/h (1 Bft) N-NO 0.00 h 38 lux -5.4 C -0.5 C
22.11.2005 18:00 -0.1 C 63 % 1032.1 hPa 0.0 l/m 7.0 km/h (2 Bft) O 0.00 h 0 lux -6.2 C -2.3 C
22.11.2005 19:00 -0.7 C 65 % 1032.2 hPa 0.0 l/m 5.9 km/h (2 Bft) O 0.00 h 0 lux -6.5 C -2.5 C
22.11.2005 20:00 -0.9 C 65 % 1032.5 hPa 0.0 l/m 8.2 km/h (2 Bft) O-SO 0.00 h 0 lux -6.6 C -3.3 C
22.11.2005 21:00 -1.2 C 69 % 1033.0 hPa 0.0 l/m 8.3 km/h (2 Bft) O-SO 0.00 h 0 lux -6.2 C -3.8 C
22.11.2005 22:00 -1.4 C 71 % 1032.6 hPa 0.0 l/m 0.6 km/h (0 Bft) NO 0.00 h 0 lux -5.9 C -1.5 C
22.11.2005 23:00 -0.4 C 70 % 1032.2 hPa 0.0 l/m 5.1 km/h (1 Bft) O-SO 0.00 h 0 lux -5.3 C -2.0 C
23.11.2005 00:00 0.2 C 71 % 1032.1 hPa 0.0 l/m 7.4 km/h (2 Bft) O-SO 0.00 h 0 lux -4.4 C -2.1 C
23.11.2005 01:00 0.8 C 70 % 1031.0 hPa 0.0 l/m 2.6 km/h (1 Bft) N-NO 0.00 h 0 lux -4.0 C 0.3 C
23.11.2005 02:00 1.2 C 71 % 1030.9 hPa 0.0 l/m 3.4 km/h (1 Bft) NO 0.00 h 0 lux -3.6 C 0.4 C
23.11.2005 03:00 1.2 C 73 % 1030.0 hPa 0.0 l/m 1.4 km/h (1 Bft) NO 0.00 h 0 lux -3.2 C 0.9 C
23.11.2005 04:00 1.4 C 71 % 1029.8 hPa 0.0 l/m 2.0 km/h (1 Bft) NO 0.00 h 0 lux -3.3 C 1.1 C
23.11.2005 05:00 1.6 C 66 % 1029.8 hPa 0.0 l/m 2.2 km/h (1 Bft) NO 0.00 h 0 lux -4.0 C 1.2 C
23.11.2005 06:00 1.7 C 63 % 1029.6 hPa 0.0 l/m 5.4 km/h (1 Bft) O-NO 0.00 h 0 lux -4.5 C 0.5 C
23.11.2005 07:00 1.8 C 61 % 1029.5 hPa 0.0 l/m 8.7 km/h (2 Bft) O 0.00 h 251 lux -4.9 C -0.4 C
23.11.2005 08:00 2.0 C 61 % 1028.7 hPa 0.0 l/m 6.7 km/h (2 Bft) NO 0.00 h 2.06 klux -4.7 C 0.2 C
23.11.2005 09:00 2.4 C 60 % 1028.6 hPa 0.0 l/m 9.9 km/h (2 Bft) NO 0.23 h 11.1 klux -4.6 C 0.0 C
23.11.2005 10:00 2.1 C 64 % 1028.7 hPa 0.0 l/m 11.6 km/h (2 Bft) O-SO 0.00 h 6.74 klux -4.0 C -0.9 C
23.11.2005 11:00 2.3 C 62 % 1028.6 hPa 0.0 l/m 12.5 km/h (3 Bft) O 0.10 h 17.5 klux -4.2 C -0.7 C
23.11.2005 12:00 2.6 C 52 % 1027.7 hPa 0.0 l/m 9.5 km/h (2 Bft) O-NO 0.03 h 19.8 klux -6.2 C 0.5 C
23.11.2005 13:00 2.1 C 48 % 1027.5 hPa 0.0 l/m 15.4 km/h (3 Bft) NO 0.33 h 25.8 klux -7.7 C -1.6 C
23.11.2005 14:00 2.0 C 46 % 1026.6 hPa 0.0 l/m 16.5 km/h (3 Bft) O 0.47 h 23.5 klux -8.3 C -2.0 C
23.11.2005 15:00 1.6 C 45 % 1027.0 hPa 0.0 l/m 9.9 km/h (2 Bft) O 0.80 h 16.4 klux -9.0 C -1.0 C
23.11.2005 16:00 0.3 C 47 % 1027.7 hPa 0.0 l/m 15.0 km/h (3 Bft) O-SO 0.17 h 1.91 klux -9.7 C -3.8 C
23.11.2005 17:00 -0.9 C 49 % 1028.1 hPa 0.0 l/m 13.9 km/h (3 Bft) O 0.00 h 34 lux -10.1 C -4.9 C
23.11.2005 18:00 -1.3 C 49 % 1028.2 hPa 0.0 l/m 10.5 km/h (2 Bft) O-NO 0.00 h 0 lux -10.5 C -4.7 C
23.11.2005 19:00 -1.9 C 50 % 1028.2 hPa 0.0 l/m 9.5 km/h (2 Bft) O-NO 0.00 h 0 lux -10.9 C -4.9 C
23.11.2005 20:00 -2.4 C 51 % 1028.3 hPa 0.0 l/m 5.5 km/h (1 Bft) O 0.00 h 0 lux -11.1 C -4.2 C
23.11.2005 21:00 -2.5 C 51 % 1028.2 hPa 0.0 l/m 9.4 km/h (2 Bft) O 0.00 h 0 lux -11.1 C -5.2 C
23.11.2005 22:00 -3.3 C 54 % 1027.4 hPa 0.0 l/m 1.6 km/h (1 Bft) N-NO 0.00 h 0 lux -11.4 C -3.6 C
23.11.2005 23:00 -3.6 C 55 % 1027.0 hPa 0.0 l/m 5.2 km/h (1 Bft) NO 0.00 h 0 lux -11.3 C -5.2 C
24.11.2005 00:00 -3.4 C 54 % 1026.4 hPa 0.0 l/m 14.0 km/h (3 Bft) O 0.00 h 0 lux -11.4 C -8.0 C
24.11.2005 01:00 -2.9 C 52 % 1025.9 hPa 0.0 l/m 9.0 km/h (2 Bft) O 0.00 h 0 lux -11.3 C -5.9 C
24.11.2005 02:00 -2.8 C 54 % 1025.2 hPa 0.0 l/m 9.2 km/h (2 Bft) O-SO 0.00 h 0 lux -10.8 C -5.8 C
24.11.2005 03:00 -2.8 C 53 % 1024.7 hPa 0.0 l/m 9.7 km/h (2 Bft) O 0.00 h 0 lux -10.9 C -6.3 C
24.11.2005 04:00 -2.8 C 51 % 1024.2 hPa 0.0 l/m 9.2 km/h (2 Bft) O 0.00 h 0 lux -11.5 C -5.8 C
24.11.2005 05:00 -2.8 C 52 % 1024.0 hPa 0.0 l/m 7.3 km/h (2 Bft) O-SO 0.00 h 0 lux -11.3 C -5.2 C
24.11.2005 06:00 -3.0 C 54 % 1023.5 hPa 0.0 l/m 6.4 km/h (2 Bft) O-SO 0.00 h 0 lux -11.0 C -5.2 C
24.11.2005 07:00 -3.1 C 52 % 1023.2 hPa 0.0 l/m 8.0 km/h (2 Bft) O-NO 0.00 h 223 lux -11.6 C -5.8 C
24.11.2005 08:00 -3.0 C 52 % 1023.2 hPa 0.0 l/m 1.2 km/h (1 Bft) NO 0.00 h 2.52 klux -11.5 C -3.5 C
24.11.2005 09:00 -3.0 C 57 % 1023.2 hPa 0.0 l/m 4.5 km/h (1 Bft) O-SO 0.07 h 8.48 klux -10.4 C -4.4 C
24.11.2005 10:00 -2.5 C 49 % 1022.1 hPa 0.0 l/m 1.8 km/h (1 Bft) O 0.40 h 25.2 klux -11.6 C -2.9 C
24.11.2005 11:00 -2.1 C 47 % 1020.9 hPa 0.0 l/m 0.7 km/h (0 Bft) N-NO 1.00 h 45.3 klux -11.9 C -2.1 C
24.11.2005 12:00 -1.6 C 47 % 1019.4 hPa 0.0 l/m 1.1 km/h (0 Bft) O-SO 1.00 h 47.4 klux -11.5 C -1.7 C
24.11.2005 13:00 -1.1 C 45 % 1018.2 hPa 0.0 l/m 2.6 km/h (1 Bft) W-NW 1.00 h 42.9 klux -11.6 C -1.8 C
24.11.2005 14:00 -0.6 C 43 % 1017.5 hPa 0.0 l/m 1.3 km/h (1 Bft) W 1.00 h 33.2 klux -11.6 C -0.9 C
24.11.2005 15:00 -0.8 C 44 % 1016.0 hPa 0.0 l/m 2.5 km/h (1 Bft) W-NW 1.00 h 18.2 klux -11.4 C -1.5 C
24.11.2005 16:00 -2.4 C 51 % 1015.6 hPa 0.0 l/m 2.3 km/h (1 Bft) W-NW 0.47 h 2.75 klux -11.0 C -2.9 C
24.11.2005 17:00 -4.3 C 60 % 1015.1 hPa 0.0 l/m 1.7 km/h (1 Bft) W-NW 0.00 h 28 lux -11.0 C -4.8 C
24.11.2005 18:00 -3.0 C 60 % 1014.1 hPa 0.0 l/m 1.1 km/h (1 Bft) W-NW 0.00 h 0 lux -9.8 C -3.0 C
24.11.2005 19:00 -2.7 C 56 % 1012.7 hPa 0.0 l/m 1.5 km/h (1 Bft) S 0.00 h 0 lux -10.2 C -3.1 C
24.11.2005 20:00 -1.9 C 56 % 1010.9 hPa 0.0 l/m 1.8 km/h (1 Bft) SO 0.00 h 0 lux -9.6 C -2.5 C
24.11.2005 21:00 -1.5 C 56 % 1009.2 hPa 0.0 l/m 3.0 km/h (1 Bft) SO 0.00 h 0 lux -9.1 C -2.3 C
24.11.2005 22:00 -1.1 C 58 % 1007.2 hPa 0.0 l/m 3.7 km/h (1 Bft) W 0.00 h 0 lux -8.2 C -2.2 C
24.11.2005 23:00 -1.4 C 73 % 1005.7 hPa 0.0 l/m 5.7 km/h (1 Bft) SO 0.00 h 0 lux -5.7 C -3.1 C
25.11.2005 00:00 -1.8 C 85 % 1003.7 hPa 0.6 l/m 7.2 km/h (2 Bft) S 0.00 h 0 lux -4.0 C -4.1 C
25.11.2005 01:00 -1.8 C 86 % 1001.5 hPa 0.3 l/m 11.1 km/h (2 Bft) S 0.00 h 0 lux -3.8 C -5.3 C
25.11.2005 02:00 -1.8 C 87 % 999.8 hPa 0.3 l/m 12.1 km/h (2 Bft) S-SO 0.00 h 0 lux -3.7 C -5.6 C
25.11.2005 03:00 -1.4 C 89 % 998.2 hPa 0.3 l/m 14.6 km/h (3 Bft) SO 0.00 h 0 lux -3.0 C -6.0 C
25.11.2005 04:00 -0.8 C 90 % 996.9 hPa 1.6 l/m 10.7 km/h (2 Bft) SO 0.00 h 0 lux -2.2 C -4.1 C
25.11.2005 05:00 -0.4 C 92 % 996.6 hPa 1.3 l/m 2.9 km/h (1 Bft) S-SO 0.00 h 0 lux -1.5 C -1.2 C
25.11.2005 06:00 0.7 C 92 % 995.9 hPa 0.6 l/m 18.2 km/h (3 Bft) W-NW 0.00 h 0 lux -0.4 C -3.6 C
25.11.2005 07:00 0.7 C 90 % 996.6 hPa 0.0 l/m 24.3 km/h (4 Bft) W-NW 0.00 h 331 lux -0.7 C -4.8 C
25.11.2005 08:00 0.8 C 86 % 996.6 hPa 0.0 l/m 19.2 km/h (3 Bft) W-NW 0.00 h 3.79 klux -1.3 C -3.9 C
25.11.2005 09:00 0.9 C 76 % 996.8 hPa 0.0 l/m 28.9 km/h (5 Bft) W-NW 0.00 h 11.6 klux -2.8 C -5.1 C
25.11.2005 10:00 0.9 C 70 % 997.6 hPa 0.0 l/m 33.7 km/h (5 Bft) W-NW 0.10 h 22.0 klux -4.0 C -5.6 C
25.11.2005 11:00 1.0 C 63 % 997.6 hPa 0.0 l/m 29.2 km/h (5 Bft) W-NW 0.33 h 32.7 klux -5.3 C -5.1 C
25.11.2005 12:00 1.4 C 56 % 997.3 hPa 0.0 l/m 28.6 km/h (4 Bft) W-NW 0.77 h 45.3 klux -6.4 C -4.5 C
25.11.2005 13:00 1.6 C 55 % 996.5 hPa 0.0 l/m 21.5 km/h (4 Bft) W-NW 0.80 h 44.7 klux -6.4 C -3.4 C
25.11.2005 14:00 2.1 C 53 % 996.3 hPa 0.0 l/m 11.7 km/h (2 Bft) W-NW 1.00 h 41.1 klux -6.4 C -1.0 C
25.11.2005 15:00 1.8 C 51 % 996.5 hPa 0.0 l/m 11.4 km/h (2 Bft) W-NW 0.63 h 14.5 klux -7.2 C -1.3 C
25.11.2005 16:00 0.2 C 61 % 996.7 hPa 0.0 l/m 7.4 km/h (2 Bft) W-NW 0.00 h 1.37 klux -6.4 C -2.0 C
25.11.2005 17:00 -1.5 C 69 % 997.0 hPa 0.0 l/m 5.6 km/h (1 Bft) W-NW 0.00 h 38 lux -6.4 C -3.3 C
25.11.2005 18:00 -3.0 C 76 % 997.2 hPa 0.0 l/m 4.0 km/h (1 Bft) O 0.00 h 0 lux -6.6 C -4.5 C
25.11.2005 19:00 -3.9 C 78 % 997.3 hPa 0.0 l/m 6.9 km/h (2 Bft) O-SO 0.00 h 0 lux -7.1 C -6.6 C
25.11.2005 20:00 -5.1 C 79 % 998.2 hPa 0.0 l/m 6.7 km/h (2 Bft) O-SO 0.00 h 0 lux -8.2 C -8.0 C
25.11.2005 21:00 -4.7 C 79 % 998.5 hPa 0.0 l/m 9.5 km/h (2 Bft) O-SO 0.00 h 0 lux -7.8 C -8.6 C
25.11.2005 22:00 -5.0 C 77 % 997.9 hPa 0.0 l/m 3.5 km/h (1 Bft) O 0.00 h 0 lux -8.5 C -6.3 C
25.11.2005 23:00 -6.1 C 80 % 997.6 hPa 0.0 l/m 3.1 km/h (1 Bft) O 0.00 h 0 lux -8.9 C -7.4 C
26.11.2005 00:00 -5.9 C 82 % 997.6 hPa 0.0 l/m 0.1 km/h (0 Bft) O 0.00 h 0 lux -8.4 C -5.9 C
26.11.2005 01:00 -6.4 C 81 % 997.7 hPa 0.0 l/m 0.0 km/h (0 Bft) N 0.00 h 0 lux -9.1 C -6.4 C
26.11.2005 02:00 -7.2 C 80 % 997.8 hPa 0.0 l/m 0.5 km/h (0 Bft) O 0.00 h 0 lux -10.1 C -7.3 C
26.11.2005 03:00 -7.5 C 82 % 997.8 hPa 0.0 l/m 1.6 km/h (1 Bft) O 0.00 h 0 lux -10.1 C -8.2 C
26.11.2005 04:00 -7.9 C 80 % 997.9 hPa 0.0 l/m 0.0 km/h (0 Bft) O 0.00 h 0 lux -10.8 C -7.9 C
26.11.2005 05:00 -8.2 C 79 % 998.0 hPa 0.0 l/m 0.2 km/h (0 Bft) O 0.00 h 0 lux -11.1 C -8.2 C
26.11.2005 06:00 -9.1 C 77 % 998.1 hPa 0.0 l/m 0.0 km/h (0 Bft) N 0.00 h 0 lux -12.4 C -9.1 C
26.11.2005 07:00 -9.6 C 77 % 998.2 hPa 0.0 l/m 1.0 km/h (0 Bft) O 0.00 h 384 lux -12.9 C -9.9 C
26.11.2005 08:00 -9.5 C 77 % 998.2 hPa 0.0 l/m 1.8 km/h (1 Bft) O 0.07 h 5.15 klux -12.8 C -10.1 C
26.11.2005 09:00 -7.4 C 82 % 999.0 hPa 0.0 l/m 0.6 km/h (0 Bft) O-SO 0.40 h 16.9 klux -9.9 C -7.5 C
26.11.2005 10:00 -6.3 C 84 % 999.4 hPa 0.0 l/m 0.0 km/h (0 Bft) N 0.63 h 27.1 klux -8.5 C -6.3 C
26.11.2005 11:00 -4.7 C 80 % 998.5 hPa 0.0 l/m 0.0 km/h (0 Bft) N 1.00 h 49.6 klux -7.6 C -4.7 C
26.11.2005 12:00 -2.1 C 73 % 997.2 hPa 0.0 l/m 0.1 km/h (0 Bft) N 1.00 h 51.2 klux -6.3 C -2.1 C
26.11.2005 13:00 -0.2 C 67 % 996.8 hPa 0.0 l/m 1.6 km/h (1 Bft) W-NW 1.00 h 40.9 klux -5.6 C -0.5 C
26.11.2005 14:00 0.5 C 66 % 995.9 hPa 0.0 l/m 4.0 km/h (1 Bft) W-NW 1.00 h 34.6 klux -5.2 C -0.4 C
26.11.2005 15:00 -0.2 C 70 % 995.7 hPa 0.0 l/m 2.1 km/h (1 Bft) O-SO 0.90 h 18.7 klux -5.0 C -0.9 C
26.11.2005 16:00 -1.7 C 72 % 996.3 hPa 0.0 l/m 0.4 km/h (0 Bft) O-SO 0.48 h 3.12 klux -6.2 C -1.7 C
26.11.2005 17:00 -3.9 C 77 % 997.3 hPa 0.0 l/m 3.9 km/h (1 Bft) O 0.00 h 35 lux -7.4 C -5.3 C
26.11.2005 18:00 -5.2 C 79 % 997.5 hPa 0.0 l/m 3.7 km/h (1 Bft) O-SO 0.00 h 0 lux -8.3 C -6.5 C
26.11.2005 19:00 -6.1 C 79 % 998.6 hPa 0.0 l/m 0.7 km/h (0 Bft) O-SO 0.00 h 0 lux -9.2 C -6.4 C
26.11.2005 20:00 -7.0 C 80 % 998.8 hPa 0.0 l/m 0.9 km/h (0 Bft) O-SO 0.00 h 0 lux -9.9 C -7.2 C
26.11.2005 21:00 -7.8 C 79 % 998.9 hPa 0.0 l/m 0.0 km/h (0 Bft) N 0.00 h 0 lux -10.7 C -7.8 C
26.11.2005 22:00 -8.3 C 79 % 999.0 hPa 0.0 l/m 0.0 km/h (0 Bft) N 0.00 h 0 lux -11.4 C -8.3 C
26.11.2005 23:00 -8.9 C 78 % 1000.1 hPa 0.0 l/m 0.3 km/h (0 Bft) O-SO 0.00 h 0 lux -12.0 C -8.9 C
27.11.2005 00:00 -9.3 C 78 % 1000.2 hPa 0.0 l/m 1.4 km/h (1 Bft) O-SO 0.00 h 0 lux -12.4 C -9.7 C
27.11.2005 01:00 -9.2 C 78 % 1000.2 hPa 0.0 l/m 0.5 km/h (0 Bft) O-SO 0.00 h 0 lux -12.3 C -9.2 C
27.11.2005 02:00 -8.5 C 80 % 1000.1 hPa 0.0 l/m 0.0 km/h (0 Bft) N 0.00 h 0 lux -11.4 C -8.5 C
27.11.2005 03:00 -8.4 C 80 % 1000.1 hPa 0.0 l/m 0.2 km/h (0 Bft) O-SO 0.00 h 0 lux -11.2 C -8.4 C
27.11.2005 04:00 -8.6 C 81 % 1000.1 hPa 0.0 l/m 0.1 km/h (0 Bft) NW 0.00 h 0 lux -11.2 C -8.6 C
27.11.2005 05:00 -9.3 C 77 % 1000.2 hPa 0.0 l/m 0.1 km/h (0 Bft) NW 0.00 h 0 lux -12.6 C -9.3 C
27.11.2005 06:00 -10.3 C 75 % 1000.4 hPa 0.0 l/m 0.3 km/h (0 Bft) NO 0.00 h 0 lux -13.9 C -10.3 C
27.11.2005 07:00 -10.5 C 75 % 1000.4 hPa 0.0 l/m 0.0 km/h (0 Bft) N 0.00 h 334 lux -14.1 C -10.5 C
27.11.2005 08:00 -9.9 C 77 % 1000.3 hPa 0.0 l/m 0.0 km/h (0 Bft) N 0.00 h 4.20 klux -13.1 C -9.9 C
27.11.2005 09:00 -8.9 C 80 % 1001.0 hPa 0.0 l/m 0.0 km/h (0 Bft) N 0.17 h 12.5 klux -11.7 C -8.9 C
27.11.2005 10:00 -7.4 C 82 % 1001.0 hPa 0.0 l/m 0.0 km/h (0 Bft) N 0.87 h 31.8 klux -9.9 C -7.4 C
27.11.2005 11:00 -4.8 C 83 % 999.9 hPa 0.0 l/m 0.1 km/h (0 Bft) N-NW 0.33 h 24.4 klux -7.2 C -4.8 C
27.11.2005 12:00 -2.7 C 77 % 999.2 hPa 0.0 l/m 0.1 km/h (0 Bft) N 0.73 h 40.4 klux -6.1 C -2.7 C
27.11.2005 13:00 -1.6 C 73 % 999.0 hPa 0.0 l/m 0.1 km/h (0 Bft) N 0.00 h 22.1 klux -5.7 C -1.6 C
27.11.2005 14:00 -0.8 C 73 % 998.9 hPa 0.0 l/m 0.3 km/h (0 Bft) SO 0.00 h 11.3 klux -5.0 C -0.9 C
27.11.2005 15:00 -0.3 C 74 % 998.9 hPa 0.0 l/m 0.7 km/h (0 Bft) O 0.00 h 4.53 klux -4.4 C -0.4 C
27.11.2005 16:00 -0.6 C 78 % 998.9 hPa 0.0 l/m 0.0 km/h (0 Bft) N 0.00 h 1.12 klux -4.0 C -0.6 C
27.11.2005 17:00 -0.6 C 80 % 999.1 hPa 0.0 l/m 0.1 km/h (0 Bft) N 0.00 h 22 lux -3.7 C -0.6 C
27.11.2005 18:00 -0.5 C 81 % 999.9 hPa 0.0 l/m 3.2 km/h (1 Bft) SO 0.00 h 0 lux -3.3 C -1.6 C
27.11.2005 19:00 0.1 C 81 % 999.9 hPa 0.0 l/m 10.7 km/h (2 Bft) SO 0.00 h 0 lux -2.8 C -3.3 C
27.11.2005 20:00 0.2 C 80 % 999.9 hPa 0.0 l/m 7.5 km/h (2 Bft) SO 0.00 h 0 lux -2.8 C -1.9 C
27.11.2005 21:00 0.5 C 80 % 1000.7 hPa 0.0 l/m 6.0 km/h (2 Bft) SO 0.00 h 0 lux -2.6 C -1.1 C
27.11.2005 22:00 0.1 C 86 % 1000.9 hPa 0.0 l/m 0.0 km/h (0 Bft) N 0.00 h 0 lux -1.9 C 0.1 C
27.11.2005 23:00 0.1 C 88 % 1000.9 hPa 0.0 l/m 0.1 km/h (0 Bft) N 0.00 h 0 lux -1.7 C 0.1 C
Min-Datum _ 27.11.05 24.11.05 25.11.05 - 21.11.05 - - - 27.11.05 26.11.05
_ Min-Zeit 07:29 13:16 14:33 - 00:01 - - - 07:53 08:33
Minimum _ -10.7 C 41 % 995.4 hPa - 0.0 km/h (0 Bft) - - - -14.3 C -13.3 C
Max-Datum _ 22.11.05 25.11.05 22.11.05 25.11.05 25.11.05 - 22.11.05 25.11.05 21.11.05 22.11.05
_ Max-Zeit 14:24 05:59 22:07 04:03 10:19 - 08:33 11:47 22:00 14:26
Maximum _ 3.9 C 94 % 1033.5 hPa 1.6 l/m 46.3 km/h
W-NW (6 Bft)
- 0.05 h 64.6 klux 0.0 C 3.9 C
Durchschnitt _ -1.8 C 70 % 1014.9 hPa #5.2 l/m 5.0 km/h (1 Bft) O-SO #27:26 h 7.74 klux -6.8 C -3.2 C
© Kaiko 2005